Kezdőlap
METAR-TAF:

METAR-TAF

Repülőterek :

Estherville Municipal Airport

Estherville, Iowa, Amerikai Egyesült Államok

földrajzi szélesség: 43-24-04N, földrajzi hosszúság: 094-44-50W, magasság: 401 m

Jelenlegi meteorológiai megfigyelések

A jelentés 1 órával és 0 perccel ezelõtt készült, 16:52 UTC
Déli szél 10 kt széllökések: 18 kt
Hőmérséklet 28°C
Páratartalom 70%
Légköri nyomás 1016 hPa
Látótávolság: 16.1 km
Kevés felhő 2700 lábon

METAR: KEST 131652Z AUTO 19010G18KT 10SM FEW027 28/22 A3000 RMK AO2 SLP150 T02780222

Idő: 12:52 (17:52 UTC)


TAF: hiányzik

Meteorológiai megfigyelések és előrejelzések több, mint 4000 repülőtéren (METAR és TAF jelentéseket).

A térképen piros és sárga pontok jelzik az elérhető meteorológiai állomásokat.

Mozgassa az egeret a pont fölött, hogy megjelenjen az állomás neve.

Azután kattintson az időjárási megfigyelések és előrejelzések megtekintéséhez.

A térkép megváltoztatása: kattintson a fekete keresztel jelölt zöld gombra ráközelítéshez, a vonallal jelölt zöld gombra távolításhoz, vagy a zöld nyilakra a szomszédos térképek eléréséhez.


METAR-TAF: